Time;durP1;ratioP1;P1;durP2;ratioP2;P2;SDS_P1;SDS_P2;PMS_P1;PMS_P2;Temp;Humidity;BMP_temperature;BMP_pressure;BME280_temperature;BME280_humidity;BME280_pressure;Samples;Min_cycle;Max_cycle;Signal;HPM_P1;HPM_P2
2022/05/21 00:01:31;;;;;;;4.20;3.80;;;18.20;99.90;;;;;;5112808;28;20468;-71
2022/05/21 00:03:58;;;;;;;4.40;3.50;;;18.20;99.90;;;;;;5112705;28;20492;-71
2022/05/21 00:06:25;;;;;;;3.87;3.57;;;18.10;99.90;;;;;;5112766;28;20460;-71
2022/05/21 00:08:51;;;;;;;6.57;3.83;;;18.10;99.90;;;;;;5111931;28;20825;-71
2022/05/21 00:11:19;;;;;;;3.47;3.17;;;18.00;99.90;;;;;;5112328;28;20457;-71
2022/05/21 00:13:48;;;;;;;3.70;3.40;;;18.00;99.90;;;;;;5112666;28;20830;-71
2022/05/21 00:16:15;;;;;;;3.67;3.30;;;18.00;99.90;;;;;;5112383;28;20558;-71
2022/05/21 00:18:42;;;;;;;4.20;3.30;;;18.00;99.90;;;;;;5112047;28;20967;-71
2022/05/21 00:21:09;;;;;;;3.20;2.90;;;17.90;99.90;;;;;;5112135;28;20484;-71
2022/05/21 00:23:36;;;;;;;3.47;3.17;;;17.90;99.90;;;;;;5112166;28;20995;-70
2022/05/21 00:26:05;;;;;;;3.00;2.80;;;17.90;99.90;;;;;;5112044;28;20463;-71
2022/05/21 00:28:35;;;;;;;3.67;3.10;;;17.80;99.90;;;;;;5111782;28;20467;-71
2022/05/21 00:31:03;;;;;;;4.53;3.20;;;17.80;99.90;;;;;;5111961;28;20484;-71
2022/05/21 00:33:30;;;;;;;3.10;2.90;;;17.80;99.90;;;;;;5112208;28;20939;-71
2022/05/21 00:35:57;;;;;;;3.47;2.53;;;17.70;99.90;;;;;;5112210;28;20829;-71
2022/05/21 00:38:24;;;;;;;4.10;2.90;;;17.70;99.90;;;;;;5111396;28;20457;-71
2022/05/21 00:40:52;;;;;;;4.13;2.90;;;17.60;99.90;;;;;;5111995;28;20452;-71
2022/05/21 00:43:39;;;;;;;2.73;2.53;;;17.60;99.90;;;;;;5111548;28;20869;-71
2022/05/21 00:46:07;;;;;;;4.00;2.93;;;17.50;99.90;;;;;;5112047;28;20460;-71
2022/05/21 00:48:35;;;;;;;3.20;2.90;;;17.50;99.90;;;;;;5110573;28;20461;-71
2022/05/21 00:51:02;;;;;;;3.70;3.27;;;17.50;99.90;;;;;;5111703;28;20484;-71
2022/05/21 00:53:30;;;;;;;4.33;2.90;;;17.50;99.90;;;;;;5111720;28;20488;-71
2022/05/21 00:55:58;;;;;;;2.93;2.67;;;17.40;99.90;;;;;;5111532;28;20841;-71
2022/05/21 01:01:16;;;;;;;2.70;2.50;;;17.30;99.90;;;;;;5111349;28;20448;-70
2022/05/21 01:03:43;;;;;;;2.90;2.67;;;17.20;99.90;;;;;;5111648;28;20456;-71
2022/05/21 01:06:10;;;;;;;4.60;2.70;;;17.20;99.90;;;;;;5111263;28;20461;-71
2022/05/21 01:08:38;;;;;;;3.07;2.77;;;17.10;99.90;;;;;;5110871;28;20555;-71
2022/05/21 01:11:11;;;;;;;3.47;2.93;;;17.10;99.90;;;;;;5111248;28;20480;-71
2022/05/21 01:13:41;;;;;;;3.07;2.77;;;17.10;99.90;;;;;;5111172;28;20475;-71
2022/05/21 01:16:08;;;;;;;3.30;2.87;;;17.00;99.90;;;;;;5111154;28;20461;-71
2022/05/21 01:18:37;;;;;;;3.00;2.70;;;17.00;99.90;;;;;;5110576;28;20472;-71
2022/05/21 01:21:04;;;;;;;3.30;2.60;;;16.90;99.90;;;;;;5111165;28;20813;-71
2022/05/21 01:23:32;;;;;;;2.60;2.40;;;16.90;99.90;;;;;;5110863;28;20995;-71
2022/05/21 01:26:01;;;;;;;3.30;2.53;;;16.80;99.90;;;;;;5111262;28;20465;-71
2022/05/21 01:28:32;;;;;;;2.63;2.43;;;16.70;99.90;;;;;;5110576;28;20457;-71
2022/05/21 01:31:00;;;;;;;2.73;2.43;;;16.70;99.90;;;;;;5110943;28;20483;-71
2022/05/21 01:33:29;;;;;;;2.60;2.40;;;16.70;99.90;;;;;;5110963;28;20487;-71
2022/05/21 01:35:57;;;;;;;2.63;2.43;;;16.60;99.90;;;;;;5110891;28;20460;-71
2022/05/21 01:38:26;;;;;;;2.40;2.20;;;16.60;99.90;;;;;;5110390;28;21124;-71
2022/05/21 01:40:54;;;;;;;3.50;2.13;;;16.50;99.90;;;;;;5110912;28;20457;-71
2022/05/21 01:46:05;;;;;;;2.83;2.20;;;16.40;99.90;;;;;;5110768;28;20482;-71
2022/05/21 01:48:34;;;;;;;2.50;2.30;;;16.30;99.90;;;;;;5110389;28;20465;-71
2022/05/21 01:51:00;;;;;;;2.30;1.97;;;16.30;99.90;;;;;;5110850;28;20488;-71
2022/05/21 01:53:28;;;;;;;2.13;1.93;;;16.30;99.90;;;;;;5110543;28;20893;-71
2022/05/21 01:55:58;;;;;;;5.63;2.40;;;16.20;99.90;;;;;;5110791;28;20468;-71
2022/05/21 01:58:26;;;;;;;2.90;2.10;;;16.20;99.90;;;;;;5110306;28;20823;-71
2022/05/21 02:00:54;;;;;;;2.33;2.13;;;16.10;99.90;;;;;;5112127;28;20452;-71
2022/05/21 02:03:21;;;;;;;2.20;2.00;;;16.10;99.90;;;;;;5114586;28;20846;-71
2022/05/21 02:05:48;;;;;;;3.10;2.10;;;16.00;99.90;;;;;;5115130;28;20831;-71
2022/05/21 02:08:16;;;;;;;2.63;2.43;;;16.00;99.90;;;;;;5114154;28;20460;-71
2022/05/21 02:10:44;;;;;;;2.30;2.00;;;15.90;99.90;;;;;;5114804;28;20575;-71
2022/05/21 02:13:16;;;;;;;3.13;2.00;;;15.90;99.90;;;;;;5114899;28;20477;-71
2022/05/21 02:15:44;;;;;;;2.30;2.10;;;15.90;99.90;;;;;;5114993;28;20456;-71
2022/05/21 02:18:11;;;;;;;2.30;2.10;;;15.90;99.90;;;;;;5114092;28;20947;-71
2022/05/21 02:20:38;;;;;;;2.13;1.90;;;15.80;99.90;;;;;;5114705;28;20455;-71
2022/05/21 02:23:05;;;;;;;2.33;2.13;;;15.70;99.90;;;;;;5114548;28;20472;-71
2022/05/21 02:25:32;;;;;;;2.23;1.97;;;15.70;99.90;;;;;;5114797;28;20468;-70
2022/05/21 02:27:58;;;;;;;2.37;1.90;;;15.70;99.90;;;;;;5114135;28;20457;-70
2022/05/21 02:30:27;;;;;;;2.53;2.30;;;15.60;99.90;;;;;;5114389;28;20484;-71
2022/05/21 02:32:53;;;;;;;2.87;2.13;;;15.50;99.90;;;;;;5114350;28;20473;-71
2022/05/21 02:35:20;;;;;;;2.57;2.27;;;15.50;99.90;;;;;;5114350;28;20465;-70
2022/05/21 02:40:36;;;;;;;2.40;2.20;;;15.40;99.90;;;;;;5056748;28;21252;-71
2022/05/21 02:43:03;;;;;;;2.30;2.10;;;15.40;99.90;;;;;;5114290;28;20480;-71
2022/05/21 02:45:31;;;;;;;2.83;1.87;;;15.40;99.90;;;;;;5114250;28;20464;-70
2022/05/21 02:47:58;;;;;;;2.50;2.30;;;15.30;99.90;;;;;;5114177;28;20479;-70
2022/05/21 02:50:28;;;;;;;2.47;2.27;;;15.30;99.90;;;;;;5114023;28;20503;-70
2022/05/21 02:52:55;;;;;;;3.07;1.93;;;15.20;99.90;;;;;;5114261;28;20476;-70
2022/05/21 02:55:22;;;;;;;1.93;1.83;;;15.20;99.90;;;;;;5113748;28;20479;-70
2022/05/21 02:57:49;;;;;;;3.30;2.20;;;15.20;99.90;;;;;;5114339;28;20831;-70
2022/05/21 03:00:18;;;;;;;2.90;2.10;;;15.10;99.90;;;;;;5113562;28;20452;-70
2022/05/21 03:02:47;;;;;;;2.93;2.23;;;15.00;99.90;;;;;;5114037;28;20476;-71
2022/05/21 03:05:15;;;;;;;2.63;1.90;;;15.00;99.90;;;;;;5113988;28;20464;-70
2022/05/21 03:07:44;;;;;;;2.83;2.57;;;15.00;99.90;;;;;;5113933;28;20850;-70
2022/05/21 03:10:23;;;;;;;2.37;2.17;;;14.90;99.90;;;;;;5113298;28;20476;-70
2022/05/21 03:12:55;;;;;;;2.50;2.30;;;14.90;99.90;;;;;;5113780;28;20487;-70
2022/05/21 03:15:24;;;;;;;3.30;2.40;;;14.80;99.90;;;;;;5113966;28;20456;-70
2022/05/21 03:17:53;;;;;;;4.33;2.80;;;14.80;99.90;;;;;;5113775;28;20820;-70
2022/05/21 03:20:21;;;;;;;4.60;2.60;;;14.70;99.90;;;;;;5112865;28;20547;-70
2022/05/21 03:22:48;;;;;;;3.67;2.50;;;14.70;99.90;;;;;;5113892;28;20480;-70
2022/05/21 03:25:16;;;;;;;2.53;2.30;;;14.60;99.90;;;;;;5113222;28;20483;-70
2022/05/21 03:27:43;;;;;;;2.90;2.63;;;14.60;99.90;;;;;;5113816;28;20457;-70
2022/05/21 03:30:14;;;;;;;4.27;2.60;;;14.50;99.90;;;;;;5112654;28;20487;-70
2022/05/21 03:32:40;;;;;;;3.00;2.77;;;14.50;99.90;;;;;;5113634;28;20473;-71
2022/05/21 03:35:10;;;;;;;3.17;2.90;;;14.50;99.90;;;;;;5113230;28;20456;-71
2022/05/21 03:37:37;;;;;;;3.00;2.70;;;14.50;99.90;;;;;;5113279;28;20461;-71
2022/05/21 03:40:06;;;;;;;3.43;3.13;;;14.50;99.90;;;;;;5112649;28;20461;-71
2022/05/21 03:42:33;;;;;;;3.70;2.63;;;14.50;99.90;;;;;;5113033;28;20481;-71
2022/05/21 03:45:00;;;;;;;2.90;2.70;;;14.50;99.90;;;;;;5113398;28;20472;-71
2022/05/21 03:47:27;;;;;;;3.23;3.00;;;14.50;99.90;;;;;;5113236;28;20457;-71
2022/05/21 03:49:53;;;;;;;3.33;2.57;;;14.40;99.90;;;;;;5112522;28;20456;-71
2022/05/21 03:52:22;;;;;;;2.70;2.50;;;14.40;99.90;;;;;;5112978;28;20621;-71
2022/05/21 03:54:49;;;;;;;4.50;3.10;;;14.40;99.90;;;;;;5113017;28;20464;-72
2022/05/21 03:57:15;;;;;;;3.00;2.23;;;14.40;99.90;;;;;;5112783;28;20846;-71
2022/05/21 03:59:42;;;;;;;2.80;2.27;;;14.40;99.90;;;;;;5112333;28;20457;-71
2022/05/21 04:02:10;;;;;;;2.90;2.40;;;14.30;99.90;;;;;;5112860;28;21056;-71
2022/05/21 04:04:36;;;;;;;2.90;2.37;;;14.20;99.90;;;;;;5112438;28;20460;-71
2022/05/21 04:07:04;;;;;;;3.63;2.77;;;14.20;99.90;;;;;;5112837;28;20461;-71
2022/05/21 04:09:32;;;;;;;3.77;3.07;;;14.20;99.90;;;;;;5112159;28;20963;-71
2022/05/21 04:11:59;;;;;;;3.37;3.03;;;14.20;99.90;;;;;;5112347;28;20493;-71
2022/05/21 04:14:27;;;;;;;3.03;2.60;;;14.10;99.90;;;;;;5112648;28;20463;-72
2022/05/21 04:16:55;;;;;;;5.53;2.80;;;14.10;99.90;;;;;;5112566;28;20840;-71
2022/05/21 04:19:23;;;;;;;2.40;2.20;;;14.10;99.90;;;;;;5111829;28;20468;-71
2022/05/21 04:21:50;;;;;;;2.93;2.50;;;14.10;99.90;;;;;;5112377;28;20480;-72
2022/05/21 04:24:16;;;;;;;3.07;2.80;;;14.10;99.90;;;;;;5111276;28;20464;-71
2022/05/21 04:26:45;;;;;;;2.70;2.50;;;14.10;99.90;;;;;;5112119;28;20463;-71
2022/05/21 04:29:14;;;;;;;5.37;2.77;;;14.20;99.90;;;;;;5111170;28;20879;-71
2022/05/21 04:31:41;;;;;;;4.30;3.30;;;14.20;99.90;;;;;;5112337;28;20571;-71
2022/05/21 04:34:08;;;;;;;4.50;2.83;;;14.20;99.90;;;;;;5112082;28;20468;-72
2022/05/21 04:36:35;;;;;;;3.07;2.87;;;14.20;99.90;;;;;;5112467;28;20464;-72
2022/05/21 04:39:02;;;;;;;2.47;2.27;;;14.20;99.90;;;;;;5111580;28;20452;-73
2022/05/21 04:41:29;;;;;;;3.20;2.90;;;14.30;99.90;;;;;;5112247;28;20461;-73
2022/05/21 04:43:58;;;;;;;3.80;3.00;;;14.30;99.90;;;;;;5112098;28;20977;-72
2022/05/21 04:46:25;;;;;;;2.90;2.37;;;14.20;99.90;;;;;;5112117;28;20513;-73
2022/05/21 04:48:52;;;;;;;3.43;2.60;;;14.20;99.90;;;;;;5111418;28;20457;-73
2022/05/21 04:51:19;;;;;;;8.00;3.10;;;14.20;99.90;;;;;;5111565;28;20481;-72
2022/05/21 04:53:46;;;;;;;2.97;2.67;;;14.30;99.90;;;;;;5111619;28;20463;-72
2022/05/21 04:56:13;;;;;;;3.23;2.47;;;14.30;99.90;;;;;;5184149;22;20496;-74
2022/05/21 04:58:43;;;;;;;3.10;2.80;;;14.30;99.90;;;;;;5090067;28;20952;-74
2022/05/21 05:01:11;;;;;;;2.87;2.63;;;14.30;99.90;;;;;;5091469;28;20952;-72
2022/05/21 05:03:38;;;;;;;3.60;2.93;;;14.30;99.90;;;;;;5070827;28;20482;-73
2022/05/21 05:06:08;;;;;;;2.43;2.23;;;14.40;99.90;;;;;;5070938;28;20458;-73
2022/05/21 05:08:35;;;;;;;2.63;2.43;;;14.40;99.90;;;;;;5069938;28;20840;-74
2022/05/21 05:11:02;;;;;;;2.77;2.57;;;14.40;99.90;;;;;;5071099;28;21012;-73
2022/05/21 05:13:29;;;;;;;2.60;2.40;;;14.40;99.90;;;;;;5069535;28;20548;-74
2022/05/21 05:15:56;;;;;;;3.50;3.10;;;14.40;99.90;;;;;;5068269;28;20459;-74
2022/05/21 05:18:27;;;;;;;3.57;3.10;;;14.50;99.90;;;;;;5067641;28;20470;-74
2022/05/21 05:20:54;;;;;;;3.27;3.00;;;14.50;99.90;;;;;;5068508;28;20512;-74
2022/05/21 05:23:20;;;;;;;3.50;2.90;;;14.40;99.90;;;;;;5068332;28;20835;-74
2022/05/21 05:25:47;;;;;;;3.10;2.80;;;14.40;99.90;;;;;;5068896;28;20462;-74
2022/05/21 05:28:17;;;;;;;2.97;2.37;;;14.40;99.90;;;;;;5067640;28;20485;-73
2022/05/21 05:30:44;;;;;;;3.17;2.70;;;14.50;99.90;;;;;;5068076;28;20555;-73
2022/05/21 05:33:11;;;;;;;2.87;2.67;;;14.60;99.90;;;;;;5068058;28;20496;-73
2022/05/21 05:35:39;;;;;;;2.53;2.30;;;14.70;99.90;;;;;;5068439;28;20466;-73
2022/05/21 05:38:07;;;;;;;3.90;2.57;;;14.80;99.90;;;;;;5068219;28;20466;-74
2022/05/21 05:40:35;;;;;;;3.70;2.13;;;14.90;99.90;;;;;;5068521;28;20459;-73
2022/05/21 05:43:04;;;;;;;2.33;2.13;;;14.90;99.90;;;;;;5047554;28;20478;-73
2022/05/21 05:45:31;;;;;;;3.67;2.67;;;15.00;99.90;;;;;;5047753;28;20466;-72
2022/05/21 05:47:58;;;;;;;2.40;2.20;;;14.90;99.90;;;;;;5047774;28;20459;-73
2022/05/21 05:50:25;;;;;;;2.80;2.20;;;15.00;99.90;;;;;;5047875;28;20469;-73
2022/05/21 05:52:53;;;;;;;3.20;2.20;;;15.00;99.90;;;;;;5048359;28;20493;-73
2022/05/21 05:55:21;;;;;;;2.20;1.77;;;15.10;99.90;;;;;;5047897;28;20981;-73
2022/05/21 05:57:51;;;;;;;2.93;2.00;;;15.10;99.90;;;;;;5047493;28;21013;-73
2022/05/21 06:00:17;;;;;;;2.00;1.90;;;15.20;99.90;;;;;;5047735;28;20518;-73
2022/05/21 06:02:59;;;;;;;2.57;1.70;;;15.30;99.90;;;;;;5047195;28;21593;-73
2022/05/21 06:05:29;;;;;;;2.70;2.03;;;15.30;99.90;;;;;;5047417;28;20464;-73
2022/05/21 06:08:00;;;;;;;2.87;1.50;;;15.30;99.90;;;;;;5047653;28;20471;-73
2022/05/21 06:10:28;;;;;;;2.40;2.17;;;15.40;99.90;;;;;;5047811;28;20460;-73
2022/05/21 06:12:55;;;;;;;2.10;1.90;;;15.40;99.90;;;;;;5047013;28;20490;-73
2022/05/21 06:15:22;;;;;;;2.37;1.80;;;15.40;99.90;;;;;;5047523;28;20470;-72
2022/05/21 06:17:51;;;;;;;8.50;1.93;;;15.50;99.90;;;;;;5047384;28;20451;-73
2022/05/21 06:20:20;;;;;;;1.30;1.20;;;15.50;99.90;;;;;;5045243;28;20469;-73
2022/05/21 06:22:47;;;;;;;2.23;1.77;;;15.60;99.90;;;;;;5046015;28;20482;-73
2022/05/21 06:25:18;;;;;;;2.07;1.50;;;15.60;99.90;;;;;;5047253;28;20467;-73
2022/05/21 06:27:45;;;;;;;1.40;1.30;;;15.70;99.90;;;;;;5047526;28;20470;-71
2022/05/21 06:30:13;;;;;;;1.90;1.73;;;15.80;99.90;;;;;;5047106;28;20990;-73
2022/05/21 06:32:40;;;;;;;2.80;1.70;;;15.80;99.90;;;;;;5046593;28;20498;-73
2022/05/21 06:35:07;;;;;;;2.70;1.53;;;15.80;99.90;;;;;;5039881;28;20455;-73
2022/05/21 06:37:35;;;;;;;3.30;1.90;;;15.80;99.90;;;;;;5040415;28;20463;-73
2022/05/21 06:40:02;;;;;;;2.10;1.90;;;15.90;99.90;;;;;;5038739;28;21086;-73
2022/05/21 06:42:30;;;;;;;2.00;1.57;;;16.00;99.90;;;;;;5039170;28;20480;-73
2022/05/21 06:44:57;;;;;;;1.77;1.37;;;16.00;99.90;;;;;;5040695;28;20534;-73
2022/05/21 06:47:23;;;;;;;3.17;1.40;;;16.10;99.90;;;;;;5040690;28;20460;-73
2022/05/21 06:49:53;;;;;;;2.60;1.70;;;16.10;99.70;;;;;;5042216;28;20514;-73
2022/05/21 06:52:20;;;;;;;2.83;1.50;;;16.10;99.70;;;;;;5042287;28;20542;-73
2022/05/21 06:54:47;;;;;;;1.57;1.40;;;16.20;99.90;;;;;;5043210;28;21313;-73
2022/05/21 06:57:14;;;;;;;1.67;1.57;;;16.30;99.90;;;;;;5041974;28;20471;-73
2022/05/21 06:59:42;;;;;;;2.23;1.60;;;16.30;99.90;;;;;;5043337;28;20511;-73
2022/05/21 07:02:09;;;;;;;1.70;1.50;;;16.50;99.90;;;;;;5042091;28;20551;-73
2022/05/21 07:07:35;;;;;;;1.50;1.20;;;16.60;99.90;;;;;;5033441;28;20457;-73
2022/05/21 07:10:04;;;;;;;1.47;1.33;;;16.70;99.90;;;;;;5033011;28;20468;-73
2022/05/21 07:12:31;;;;;;;1.80;1.50;;;16.80;99.70;;;;;;5033070;28;20496;-73
2022/05/21 07:15:00;;;;;;;2.27;1.40;;;16.70;99.00;;;;;;5033291;28;20467;-73
2022/05/21 07:17:27;;;;;;;4.53;1.47;;;16.70;99.80;;;;;;5033185;28;20467;-73
2022/05/21 07:19:53;;;;;;;1.67;1.30;;;16.80;99.40;;;;;;5032760;28;20464;-73
2022/05/21 07:22:20;;;;;;;2.60;1.43;;;16.90;99.40;;;;;;5033223;28;20476;-73
2022/05/21 07:24:47;;;;;;;1.93;1.50;;;17.00;99.90;;;;;;5033238;28;20471;-73
2022/05/21 07:27:14;;;;;;;2.00;1.70;;;17.10;99.50;;;;;;5033189;28;20463;-73
2022/05/21 07:29:42;;;;;;;5.20;1.83;;;17.10;99.20;;;;;;5032390;28;20464;-73
2022/05/21 07:32:18;;;;;;;1.40;1.20;;;17.20;99.00;;;;;;5033006;28;20484;-73
2022/05/21 07:34:45;;;;;;;1.30;1.07;;;17.30;99.40;;;;;;5032905;28;20534;-73
2022/05/21 07:37:12;;;;;;;2.63;1.30;;;17.30;99.90;;;;;;5032926;28;21025;-73
2022/05/21 07:39:39;;;;;;;1.80;1.20;;;17.40;99.30;;;;;;5032174;28;20583;-73
2022/05/21 07:42:07;;;;;;;1.50;1.20;;;17.40;99.00;;;;;;5032954;28;20512;-73
2022/05/21 07:44:33;;;;;;;1.53;1.30;;;17.50;98.10;;;;;;5038870;28;20451;-73
2022/05/21 07:47:00;;;;;;;2.20;1.07;;;17.60;98.50;;;;;;5052805;28;20466;-74
2022/05/21 07:49:28;;;;;;;1.57;1.13;;;17.70;98.90;;;;;;5051867;28;20961;-74
2022/05/21 07:51:57;;;;;;;1.27;1.10;;;17.70;97.70;;;;;;5049511;28;20486;-74
2022/05/21 07:54:24;;;;;;;1.83;1.00;;;17.70;97.70;;;;;;5042182;28;20513;-73
2022/05/21 07:56:51;;;;;;;1.20;1.10;;;17.80;97.80;;;;;;5041420;28;20525;-73
2022/05/21 07:59:18;;;;;;;1.93;1.30;;;17.80;98.50;;;;;;5039494;28;20824;-74
2022/05/21 08:01:45;;;;;;;1.50;1.40;;;17.80;98.90;;;;;;5040109;28;20911;-74
2022/05/21 08:04:11;;;;;;;2.73;1.30;;;17.90;98.80;;;;;;5041015;28;20455;-74
2022/05/21 08:06:39;;;;;;;1.30;1.10;;;17.90;98.80;;;;;;5041603;28;20464;-73
2022/05/21 08:09:06;;;;;;;2.07;1.30;;;18.00;98.00;;;;;;5031871;28;20467;-73
2022/05/21 08:11:33;;;;;;;1.43;1.10;;;18.00;98.60;;;;;;5032265;28;20845;-73
2022/05/21 08:13:59;;;;;;;1.70;1.30;;;18.20;99.50;;;;;;5032242;28;20467;-73
2022/05/21 08:16:26;;;;;;;2.20;1.27;;;18.30;98.10;;;;;;5032144;28;20468;-74
2022/05/21 08:18:53;;;;;;;2.10;1.30;;;18.30;98.50;;;;;;5031675;28;20468;-73
2022/05/21 08:21:20;;;;;;;1.40;1.20;;;18.40;99.40;;;;;;5031984;28;20467;-73
2022/05/21 08:29:16;;;;;;;1.90;1.13;;;18.60;97.80;;;;;;5031440;28;20966;-73
2022/05/21 08:31:43;;;;;;;1.67;1.30;;;18.80;97.00;;;;;;5031611;28;20497;-74
2022/05/21 08:34:09;;;;;;;2.13;1.13;;;18.70;95.90;;;;;;5037538;28;20942;-74
2022/05/21 08:36:36;;;;;;;1.43;1.10;;;18.70;96.70;;;;;;5049298;28;20842;-74
2022/05/21 08:39:05;;;;;;;1.53;1.10;;;18.80;97.70;;;;;;5050865;28;20459;-74
2022/05/21 08:41:34;;;;;;;2.70;1.23;;;19.00;97.50;;;;;;5051314;28;20459;-73
2022/05/21 08:44:04;;;;;;;1.60;1.20;;;19.20;97.60;;;;;;5050826;28;20506;-74
2022/05/21 08:46:53;;;;;;;1.77;1.00;;;19.30;96.30;;;;;;5051068;28;20466;-76
2022/05/21 08:49:26;;;;;;;2.67;1.20;;;19.30;95.50;;;;;;5050850;28;20474;-75
2022/05/21 08:51:58;;;;;;;2.30;1.30;;;19.30;95.10;;;;;;5051039;28;20986;-75
2022/05/21 08:54:33;;;;;;;1.77;1.10;;;19.40;95.90;;;;;;5050961;28;20456;-75
2022/05/21 08:57:02;;;;;;;2.03;0.90;;;19.50;96.10;;;;;;5051199;28;20473;-75
2022/05/21 08:59:33;;;;;;;1.30;1.20;;;19.60;95.60;;;;;;5050336;28;20447;-75
2022/05/21 09:02:00;;;;;;;1.63;1.53;;;19.70;95.80;;;;;;5050460;28;20770;-75
2022/05/21 09:04:27;;;;;;;1.50;1.13;;;19.90;94.60;;;;;;5048326;28;20463;-75
2022/05/21 09:06:59;;;;;;;1.50;1.10;;;20.10;95.80;;;;;;5048701;28;20463;-75
2022/05/21 09:09:41;;;;;;;1.33;1.00;;;20.10;95.20;;;;;;5047556;28;20845;-75
2022/05/21 09:12:16;;;;;;;2.70;1.20;;;20.10;94.80;;;;;;5048423;28;21018;-75
2022/05/21 09:14:46;;;;;;;2.00;1.20;;;20.20;95.90;;;;;;5049223;28;20463;-76
2022/05/21 09:17:14;;;;;;;1.80;1.17;;;20.40;95.20;;;;;;5049579;28;20459;-76
2022/05/21 09:19:47;;;;;;;2.17;1.13;;;20.50;94.90;;;;;;5050655;28;20538;-75
2022/05/21 09:22:15;;;;;;;1.73;1.00;;;20.80;96.00;;;;;;5051221;28;20479;-75
2022/05/21 09:24:46;;;;;;;1.53;0.87;;;20.90;94.30;;;;;;5050877;28;20832;-75
2022/05/21 09:27:26;;;;;;;1.80;1.10;;;21.00;94.90;;;;;;5050992;28;20493;-75
2022/05/21 09:29:55;;;;;;;2.30;1.10;;;21.10;94.40;;;;;;5050616;28;20901;-75
2022/05/21 09:32:24;;;;;;;1.63;1.07;;;21.00;94.10;;;;;;5050736;28;21029;-75
2022/05/21 09:35:05;;;;;;;1.13;1.03;;;21.00;93.60;;;;;;5050869;28;20939;-75
2022/05/21 09:37:31;;;;;;;1.33;1.23;;;21.20;93.30;;;;;;5050741;28;20501;-74
2022/05/21 09:40:00;;;;;;;3.63;1.20;;;21.40;91.70;;;;;;5050517;28;20462;-75
2022/05/21 09:45:26;;;;;;;2.10;1.10;;;21.70;93.00;;;;;;5051057;28;20902;-75
2022/05/21 09:47:54;;;;;;;1.57;1.13;;;21.90;92.70;;;;;;5050783;28;20954;-75
2022/05/21 09:50:24;;;;;;;2.07;1.07;;;21.90;93.30;;;;;;5050337;28;20950;-75
2022/05/21 09:52:51;;;;;;;1.20;0.97;;;22.00;92.50;;;;;;5050520;28;20494;-76
2022/05/21 09:55:25;;;;;;;1.60;1.40;;;22.20;93.20;;;;;;5050634;28;20463;-75
2022/05/21 09:57:52;;;;;;;1.73;1.20;;;22.30;91.20;;;;;;5050404;28;20521;-75
2022/05/21 10:00:24;;;;;;;3.87;1.17;;;22.40;93.30;;;;;;5050201;28;20466;-75
2022/05/21 10:02:53;;;;;;;1.53;1.00;;;22.70;92.80;;;;;;5050465;28;20482;-75
2022/05/21 10:05:25;;;;;;;1.97;1.30;;;22.90;91.20;;;;;;5050873;28;20530;-75
2022/05/21 10:10:59;;;;;;;2.70;1.10;;;23.20;91.80;;;;;;5050603;28;20443;-75
2022/05/21 10:13:27;;;;;;;1.40;1.20;;;23.20;91.10;;;;;;5050312;28;21013;-75
2022/05/21 10:15:58;;;;;;;1.93;1.10;;;23.30;92.10;;;;;;5050543;28;20989;-75
2022/05/21 10:18:31;;;;;;;0.90;0.80;;;23.40;91.30;;;;;;5049884;28;20460;-75
2022/05/21 10:21:03;;;;;;;2.83;1.20;;;23.50;90.90;;;;;;5050565;28;20463;-75
2022/05/21 10:23:40;;;;;;;1.67;1.00;;;23.60;90.50;;;;;;5054500;28;20537;-75
2022/05/21 10:26:31;;;;;;;1.00;0.90;;;23.60;93.00;;;;;;5054701;28;20470;-75
2022/05/21 10:29:12;;;;;;;1.60;1.40;;;23.50;92.20;;;;;;5053899;28;20481;-75
2022/05/21 10:31:50;;;;;;;3.27;1.30;;;23.40;91.70;;;;;;5054087;28;20566;-76
2022/05/21 10:34:40;;;;;;;2.60;1.10;;;23.60;93.00;;;;;;5054492;28;20482;-75
2022/05/21 10:37:19;;;;;;;1.20;1.00;;;23.80;93.30;;;;;;5055840;28;20818;-76
2022/05/21 10:40:00;;;;;;;1.80;1.07;;;24.10;93.20;;;;;;5054254;28;20467;-75
2022/05/21 10:42:47;;;;;;;1.37;1.00;;;24.20;91.40;;;;;;5053733;28;20471;-75
2022/05/21 10:45:21;;;;;;;1.93;1.10;;;24.20;87.90;;;;;;5054091;28;21019;-75
2022/05/21 10:48:07;;;;;;;2.70;1.13;;;24.00;90.40;;;;;;5053876;28;20467;-75
2022/05/21 10:50:41;;;;;;;2.07;1.13;;;24.00;91.10;;;;;;5053761;28;20962;-75
2022/05/21 10:53:30;;;;;;;2.20;1.10;;;24.20;90.90;;;;;;5053821;28;20860;-75
2022/05/21 10:56:06;;;;;;;1.47;1.07;;;24.20;90.60;;;;;;5070542;22;20485;-70
2022/05/21 10:58:49;;;;;;;2.80;1.23;;;24.40;92.00;;;;;;5071496;28;20457;-70
2022/05/21 11:01:22;;;;;;;1.20;0.90;;;24.60;90.00;;;;;;5052418;28;20455;-70
2022/05/21 11:04:22;;;;;;;5.20;1.30;;;24.70;87.70;;;;;;5033625;28;20451;-70
2022/05/21 11:07:14;;;;;;;1.50;1.20;;;24.60;90.60;;;;;;5034004;28;20464;-70
2022/05/21 11:09:49;;;;;;;1.80;1.17;;;24.50;91.80;;;;;;5012347;28;20464;-68
2022/05/21 11:12:21;;;;;;;2.13;1.07;;;24.70;91.70;;;;;;5033148;28;20487;-69
2022/05/21 11:14:56;;;;;;;2.57;1.23;;;25.00;91.20;;;;;;5033513;28;20468;-68
2022/05/21 11:17:34;;;;;;;1.43;1.13;;;25.00;90.80;;;;;;5033271;28;20463;-69
2022/05/21 11:20:05;;;;;;;1.97;1.10;;;25.20;91.60;;;;;;5032752;28;20467;-69
2022/05/21 11:22:38;;;;;;;3.97;1.10;;;25.30;91.10;;;;;;5033167;28;20483;-69
2022/05/21 11:25:14;;;;;;;1.53;1.17;;;25.30;91.10;;;;;;5033089;28;20464;-69
2022/05/21 11:27:52;;;;;;;4.70;1.40;;;25.50;91.80;;;;;;5033269;28;20459;-71
2022/05/21 11:30:22;;;;;;;3.07;1.20;;;25.60;89.30;;;;;;5032485;28;20464;-71
2022/05/21 11:38:31;;;;;;;1.80;1.30;;;25.90;84.50;;;;;;5030605;28;20505;-71
2022/05/21 11:46:46;;;;;;;1.77;1.33;;;25.90;89.00;;;;;;5028935;28;20948;-68
2022/05/21 11:49:40;;;;;;;1.40;1.30;;;26.00;91.20;;;;;;5029433;28;20471;-68
2022/05/21 11:52:44;;;;;;;2.30;1.77;;;26.10;88.80;;;;;;5029865;28;20514;-68
2022/05/21 11:55:16;;;;;;;1.30;1.10;;;26.10;89.40;;;;;;5029685;28;20464;-68
2022/05/21 11:57:44;;;;;;;2.13;1.20;;;26.10;91.20;;;;;;5029496;28;20473;-68
2022/05/21 12:00:49;;;;;;;1.60;1.20;;;26.00;87.90;;;;;;5028967;28;20544;-68
2022/05/21 12:03:22;;;;;;;1.37;1.13;;;26.00;89.30;;;;;;5029077;28;20480;-68
2022/05/21 12:06:23;;;;;;;2.27;1.00;;;25.70;87.10;;;;;;5029176;28;20503;-68
2022/05/21 12:08:50;;;;;;;2.10;1.07;;;25.50;90.50;;;;;;5022520;28;20559;-69
2022/05/21 12:11:45;;;;;;;2.80;1.10;;;25.50;88.40;;;;;;5029358;28;20467;-69
2022/05/21 12:14:22;;;;;;;2.33;1.30;;;25.60;89.70;;;;;;5029290;28;21322;-69
2022/05/21 12:16:52;;;;;;;2.80;1.47;;;25.70;90.40;;;;;;5029324;28;20466;-69
2022/05/21 12:20:09;;;;;;;1.47;1.00;;;25.70;89.70;;;;;;5028657;28;20526;-70
2022/05/21 12:22:52;;;;;;;2.47;1.40;;;25.80;90.10;;;;;;5028923;28;20593;-69
2022/05/21 12:25:56;;;;;;;1.77;1.10;;;26.00;90.20;;;;;;5029316;28;20526;-69
2022/05/21 12:28:47;;;;;;;1.57;1.20;;;26.10;88.50;;;;;;5028793;28;20501;-69
2022/05/21 12:31:21;;;;;;;3.83;1.37;;;26.00;89.30;;;;;;5029604;28;20472;-68
2022/05/21 12:33:55;;;;;;;1.20;1.10;;;26.00;87.90;;;;;;5029227;28;20833;-68
2022/05/21 12:36:47;;;;;;;1.50;1.10;;;26.00;88.00;;;;;;5029292;28;20470;-69
2022/05/21 12:39:20;;;;;;;1.60;1.30;;;25.90;86.20;;;;;;5028409;28;20467;-68
2022/05/21 12:41:51;;;;;;;2.47;1.20;;;26.00;87.00;;;;;;5028668;28;20499;-69
2022/05/21 12:44:38;;;;;;;2.90;1.40;;;26.20;90.70;;;;;;5028013;28;20465;-69
2022/05/21 12:47:05;;;;;;;2.17;1.10;;;26.40;85.40;;;;;;5029048;28;20460;-69
2022/05/21 12:49:33;;;;;;;2.00;1.30;;;26.30;87.70;;;;;;5028234;28;20464;-69
2022/05/21 12:51:59;;;;;;;4.23;1.70;;;26.30;87.60;;;;;;5028425;28;20490;-70
2022/05/21 12:54:29;;;;;;;2.10;1.10;;;26.20;89.60;;;;;;5028110;28;21005;-69
2022/05/21 12:56:57;;;;;;;2.60;1.30;;;26.40;86.60;;;;;;5029880;28;20925;-69
2022/05/21 12:59:29;;;;;;;1.90;1.47;;;26.40;88.90;;;;;;5041444;28;20253;-72
2022/05/21 13:02:00;;;;;;;1.90;1.40;;;26.40;86.60;;;;;;5048923;28;20483;-68
2022/05/21 13:04:31;;;;;;;1.67;1.23;;;26.40;86.60;;;;;;5048365;28;20528;-69
2022/05/21 13:07:01;;;;;;;1.23;1.10;;;26.60;86.50;;;;;;5048560;28;20483;-69
2022/05/21 13:09:30;;;;;;;2.47;1.30;;;26.70;88.10;;;;;;5045778;28;20506;-68
2022/05/21 13:11:57;;;;;;;4.33;1.77;;;26.50;87.30;;;;;;5048146;28;20517;-68
2022/05/21 13:14:32;;;;;;;2.80;1.20;;;26.40;86.70;;;;;;5048262;28;21049;-68
2022/05/21 13:17:00;;;;;;;3.60;1.40;;;26.30;87.60;;;;;;5048144;28;20461;-69
2022/05/21 13:20:11;;;;;;;1.90;1.33;;;26.40;85.90;;;;;;5047470;28;20462;-68
2022/05/21 13:23:01;;;;;;;3.37;1.50;;;26.30;84.20;;;;;;5035704;28;20509;-69
2022/05/21 13:25:29;;;;;;;1.80;1.30;;;26.50;87.60;;;;;;5047931;28;20463;-68
2022/05/21 13:27:57;;;;;;;1.40;1.20;;;26.80;84.00;;;;;;5046931;28;20459;-69
2022/05/21 13:30:32;;;;;;;1.67;1.27;;;26.70;84.30;;;;;;5047972;28;20460;-68
2022/05/21 13:33:01;;;;;;;4.03;1.07;;;26.60;83.20;;;;;;5047962;28;20473;-69
2022/05/21 13:35:34;;;;;;;1.40;1.20;;;26.50;82.60;;;;;;5047509;28;20479;-68
2022/05/21 13:38:02;;;;;;;1.97;1.33;;;26.70;85.20;;;;;;5045380;28;20596;-68
2022/05/21 13:40:33;;;;;;;2.00;1.40;;;26.60;83.40;;;;;;5047651;28;20463;-69